sensor_id;sensor_type;location;lat;lon;timestamp;temperature;humidity
2012;DHT22;1009;51.436;6.972;2022-09-17T00:00:11;11.60;99.90
2012;DHT22;1009;51.436;6.972;2022-09-17T00:02:38;11.50;99.90
2012;DHT22;1009;51.436;6.972;2022-09-17T00:05:06;11.50;99.90
2012;DHT22;1009;51.436;6.972;2022-09-17T00:07:34;11.50;99.90
2012;DHT22;1009;51.436;6.972;2022-09-17T00:10:01;11.40;99.90
2012;DHT22;1009;51.436;6.972;2022-09-17T00:12:30;11.40;99.90
2012;DHT22;1009;51.436;6.972;2022-09-17T00:14:57;11.30;99.90
2012;DHT22;1009;51.436;6.972;2022-09-17T00:17:24;11.30;99.90
2012;DHT22;1009;51.436;6.972;2022-09-17T00:19:51;11.30;99.90
2012;DHT22;1009;51.436;6.972;2022-09-17T00:22:17;11.30;99.90
2012;DHT22;1009;51.436;6.972;2022-09-17T00:24:44;11.20;99.90
2012;DHT22;1009;51.436;6.972;2022-09-17T00:27:11;11.30;99.90
2012;DHT22;1009;51.436;6.972;2022-09-17T00:29:39;11.30;99.90
2012;DHT22;1009;51.436;6.972;2022-09-17T00:32:06;11.40;99.90
2012;DHT22;1009;51.436;6.972;2022-09-17T00:34:34;11.40;99.90
2012;DHT22;1009;51.436;6.972;2022-09-17T00:37:01;11.40;99.90
2012;DHT22;1009;51.436;6.972;2022-09-17T00:39:27;11.40;99.90
2012;DHT22;1009;51.436;6.972;2022-09-17T00:41:54;11.40;99.90
2012;DHT22;1009;51.436;6.972;2022-09-17T00:44:45;11.40;99.90
2012;DHT22;1009;51.436;6.972;2022-09-17T00:47:22;11.50;99.90
2012;DHT22;1009;51.436;6.972;2022-09-17T00:49:53;11.40;99.90
2012;DHT22;1009;51.436;6.972;2022-09-17T00:52:24;11.40;99.90
2012;DHT22;1009;51.436;6.972;2022-09-17T00:54:55;11.40;99.90
2012;DHT22;1009;51.436;6.972;2022-09-17T00:57:23;11.40;99.90
2012;DHT22;1009;51.436;6.972;2022-09-17T00:59:52;11.40;99.90
2012;DHT22;1009;51.436;6.972;2022-09-17T01:02:19;11.30;99.90
2012;DHT22;1009;51.436;6.972;2022-09-17T01:04:46;11.40;99.90
2012;DHT22;1009;51.436;6.972;2022-09-17T01:07:22;11.30;99.90
2012;DHT22;1009;51.436;6.972;2022-09-17T01:09:56;11.30;99.90
2012;DHT22;1009;51.436;6.972;2022-09-17T01:12:35;11.40;99.90
2012;DHT22;1009;51.436;6.972;2022-09-17T01:15:19;11.40;99.90
2012;DHT22;1009;51.436;6.972;2022-09-17T01:17:56;11.40;99.90
2012;DHT22;1009;51.436;6.972;2022-09-17T01:23:39;11.30;99.90
2012;DHT22;1009;51.436;6.972;2022-09-17T01:29:19;11.30;99.90
2012;DHT22;1009;51.436;6.972;2022-09-17T01:31:52;11.30;99.90
2012;DHT22;1009;51.436;6.972;2022-09-17T01:34:24;11.30;99.90
2012;DHT22;1009;51.436;6.972;2022-09-17T01:37:01;11.20;99.90
2012;DHT22;1009;51.436;6.972;2022-09-17T01:39:39;11.20;99.90
2012;DHT22;1009;51.436;6.972;2022-09-17T01:42:15;11.20;99.90
2012;DHT22;1009;51.436;6.972;2022-09-17T01:44:50;11.20;99.90
2012;DHT22;1009;51.436;6.972;2022-09-17T01:47:22;11.20;99.90
2012;DHT22;1009;51.436;6.972;2022-09-17T01:49:56;11.20;99.90
2012;DHT22;1009;51.436;6.972;2022-09-17T01:52:26;11.20;99.90
2012;DHT22;1009;51.436;6.972;2022-09-17T01:54:58;11.20;99.90
2012;DHT22;1009;51.436;6.972;2022-09-17T01:57:30;11.20;99.90
2012;DHT22;1009;51.436;6.972;2022-09-17T02:00:03;11.20;99.90
2012;DHT22;1009;51.436;6.972;2022-09-17T02:02:35;11.20;99.90
2012;DHT22;1009;51.436;6.972;2022-09-17T02:05:06;11.10;99.90
2012;DHT22;1009;51.436;6.972;2022-09-17T02:07:39;11.10;99.90
2012;DHT22;1009;51.436;6.972;2022-09-17T02:10:10;11.20;99.90
2012;DHT22;1009;51.436;6.972;2022-09-17T02:12:40;11.20;99.90
2012;DHT22;1009;51.436;6.972;2022-09-17T02:15:11;11.20;99.90
2012;DHT22;1009;51.436;6.972;2022-09-17T02:17:45;11.30;99.90
2012;DHT22;1009;51.436;6.972;2022-09-17T02:20:15;11.20;99.90
2012;DHT22;1009;51.436;6.972;2022-09-17T02:22:48;11.30;99.90
2012;DHT22;1009;51.436;6.972;2022-09-17T02:25:21;11.20;99.90
2012;DHT22;1009;51.436;6.972;2022-09-17T02:27:55;11.20;99.90
2012;DHT22;1009;51.436;6.972;2022-09-17T02:30:23;11.30;99.90
2012;DHT22;1009;51.436;6.972;2022-09-17T02:32:52;11.40;99.90
2012;DHT22;1009;51.436;6.972;2022-09-17T02:35:19;11.40;99.90
2012;DHT22;1009;51.436;6.972;2022-09-17T02:37:46;11.40;99.90
2012;DHT22;1009;51.436;6.972;2022-09-17T02:40:14;11.40;99.90
2012;DHT22;1009;51.436;6.972;2022-09-17T02:42:53;11.40;99.90
2012;DHT22;1009;51.436;6.972;2022-09-17T02:45:32;11.40;99.90
2012;DHT22;1009;51.436;6.972;2022-09-17T02:48:27;11.40;99.90
2012;DHT22;1009;51.436;6.972;2022-09-17T02:51:19;11.40;99.90
2012;DHT22;1009;51.436;6.972;2022-09-17T02:53:56;11.40;99.90
2012;DHT22;1009;51.436;6.972;2022-09-17T02:56:31;11.30;99.90
2012;DHT22;1009;51.436;6.972;2022-09-17T02:59:10;11.30;99.90
2012;DHT22;1009;51.436;6.972;2022-09-17T03:01:41;11.30;99.90
2012;DHT22;1009;51.436;6.972;2022-09-17T03:04:11;11.20;99.90
2012;DHT22;1009;51.436;6.972;2022-09-17T03:06:40;11.20;99.90
2012;DHT22;1009;51.436;6.972;2022-09-17T03:09:08;11.10;99.90
2012;DHT22;1009;51.436;6.972;2022-09-17T03:11:35;11.10;99.90
2012;DHT22;1009;51.436;6.972;2022-09-17T03:14:01;11.10;99.90
2012;DHT22;1009;51.436;6.972;2022-09-17T03:16:29;11.00;99.90
2012;DHT22;1009;51.436;6.972;2022-09-17T03:18:55;11.00;99.90
2012;DHT22;1009;51.436;6.972;2022-09-17T03:21:23;11.00;99.90
2012;DHT22;1009;51.436;6.972;2022-09-17T03:23:50;11.00;99.90
2012;DHT22;1009;51.436;6.972;2022-09-17T03:26:17;11.00;99.90
2012;DHT22;1009;51.436;6.972;2022-09-17T03:28:44;11.00;99.90
2012;DHT22;1009;51.436;6.972;2022-09-17T03:31:11;11.00;99.90
2012;DHT22;1009;51.436;6.972;2022-09-17T03:33:37;11.00;99.90
2012;DHT22;1009;51.436;6.972;2022-09-17T03:36:05;11.00;99.90
2012;DHT22;1009;51.436;6.972;2022-09-17T03:38:33;11.00;99.90
2012;DHT22;1009;51.436;6.972;2022-09-17T03:41:02;11.00;99.90
2012;DHT22;1009;51.436;6.972;2022-09-17T03:43:29;11.00;99.90
2012;DHT22;1009;51.436;6.972;2022-09-17T03:45:56;11.00;99.90
2012;DHT22;1009;51.436;6.972;2022-09-17T03:48:23;11.00;99.90
2012;DHT22;1009;51.436;6.972;2022-09-17T03:50:50;11.10;99.90
2012;DHT22;1009;51.436;6.972;2022-09-17T03:53:16;11.10;99.90
2012;DHT22;1009;51.436;6.972;2022-09-17T03:55:45;11.10;99.90
2012;DHT22;1009;51.436;6.972;2022-09-17T03:58:11;11.00;99.90
2012;DHT22;1009;51.436;6.972;2022-09-17T04:00:38;11.00;99.90
2012;DHT22;1009;51.436;6.972;2022-09-17T04:03:05;11.00;99.90
2012;DHT22;1009;51.436;6.972;2022-09-17T04:05:32;11.00;99.90
2012;DHT22;1009;51.436;6.972;2022-09-17T04:07:59;11.10;99.90
2012;DHT22;1009;51.436;6.972;2022-09-17T04:10:26;11.20;99.90
2012;DHT22;1009;51.436;6.972;2022-09-17T04:12:55;11.20;99.90
2012;DHT22;1009;51.436;6.972;2022-09-17T04:15:21;11.20;99.90
2012;DHT22;1009;51.436;6.972;2022-09-17T04:17:48;11.20;99.90
2012;DHT22;1009;51.436;6.972;2022-09-17T04:20:15;11.30;99.90
2012;DHT22;1009;51.436;6.972;2022-09-17T04:22:42;11.30;99.90
2012;DHT22;1009;51.436;6.972;2022-09-17T04:25:09;11.20;99.90
2012;DHT22;1009;51.436;6.972;2022-09-17T04:27:36;11.10;99.90
2012;DHT22;1009;51.436;6.972;2022-09-17T04:30:05;11.10;99.90
2012;DHT22;1009;51.436;6.972;2022-09-17T04:32:32;11.20;99.90
2012;DHT22;1009;51.436;6.972;2022-09-17T04:34:59;11.20;99.90
2012;DHT22;1009;51.436;6.972;2022-09-17T04:37:26;11.20;99.90
2012;DHT22;1009;51.436;6.972;2022-09-17T04:39:52;11.20;99.90
2012;DHT22;1009;51.436;6.972;2022-09-17T04:42:19;11.20;99.90
2012;DHT22;1009;51.436;6.972;2022-09-17T04:44:46;11.20;99.90
2012;DHT22;1009;51.436;6.972;2022-09-17T04:47:14;11.20;99.90
2012;DHT22;1009;51.436;6.972;2022-09-17T04:49:41;11.20;99.90
2012;DHT22;1009;51.436;6.972;2022-09-17T04:52:08;11.20;99.90
2012;DHT22;1009;51.436;6.972;2022-09-17T04:54:34;11.30;99.90
2012;DHT22;1009;51.436;6.972;2022-09-17T04:57:01;11.20;99.90
2012;DHT22;1009;51.436;6.972;2022-09-17T04:59:28;11.20;99.90
2012;DHT22;1009;51.436;6.972;2022-09-17T05:01:55;11.20;99.90
2012;DHT22;1009;51.436;6.972;2022-09-17T05:04:23;11.10;99.90
2012;DHT22;1009;51.436;6.972;2022-09-17T05:06:50;11.20;99.90
2012;DHT22;1009;51.436;6.972;2022-09-17T05:09:17;11.20;99.90
2012;DHT22;1009;51.436;6.972;2022-09-17T05:11:44;11.10;99.90
2012;DHT22;1009;51.436;6.972;2022-09-17T05:14:11;11.20;99.90
2012;DHT22;1009;51.436;6.972;2022-09-17T05:16:38;11.20;99.90
2012;DHT22;1009;51.436;6.972;2022-09-17T05:19:05;11.20;99.90
2012;DHT22;1009;51.436;6.972;2022-09-17T05:21:33;11.20;99.90
2012;DHT22;1009;51.436;6.972;2022-09-17T05:24:01;11.10;99.90
2012;DHT22;1009;51.436;6.972;2022-09-17T05:26:28;11.10;99.90
2012;DHT22;1009;51.436;6.972;2022-09-17T05:28:55;11.00;99.90
2012;DHT22;1009;51.436;6.972;2022-09-17T05:31:22;11.10;99.90
2012;DHT22;1009;51.436;6.972;2022-09-17T05:33:48;11.10;99.90
2012;DHT22;1009;51.436;6.972;2022-09-17T05:36:15;11.10;99.90
2012;DHT22;1009;51.436;6.972;2022-09-17T05:38:43;11.10;99.90
2012;DHT22;1009;51.436;6.972;2022-09-17T05:41:10;11.10;99.90
2012;DHT22;1009;51.436;6.972;2022-09-17T05:43:37;11.20;99.90
2012;DHT22;1009;51.436;6.972;2022-09-17T05:46:04;11.20;99.90
2012;DHT22;1009;51.436;6.972;2022-09-17T05:48:31;11.20;99.90
2012;DHT22;1009;51.436;6.972;2022-09-17T05:50:58;11.20;99.90
2012;DHT22;1009;51.436;6.972;2022-09-17T05:53:25;11.20;99.90
2012;DHT22;1009;51.436;6.972;2022-09-17T05:55:56;11.20;99.90
2012;DHT22;1009;51.436;6.972;2022-09-17T05:58:23;11.30;99.90
2012;DHT22;1009;51.436;6.972;2022-09-17T06:00:50;11.30;99.90
2012;DHT22;1009;51.436;6.972;2022-09-17T06:03:18;11.30;99.90
2012;DHT22;1009;51.436;6.972;2022-09-17T06:05:52;11.40;99.90
2012;DHT22;1009;51.436;6.972;2022-09-17T06:08:19;11.40;99.90
2012;DHT22;1009;51.436;6.972;2022-09-17T06:10:46;11.30;99.90
2012;DHT22;1009;51.436;6.972;2022-09-17T06:13:15;11.40;99.90
2012;DHT22;1009;51.436;6.972;2022-09-17T06:15:42;11.30;99.90
2012;DHT22;1009;51.436;6.972;2022-09-17T06:18:08;11.30;99.90
2012;DHT22;1009;51.436;6.972;2022-09-17T06:20:35;11.40;99.90
2012;DHT22;1009;51.436;6.972;2022-09-17T06:23:02;11.40;99.90
2012;DHT22;1009;51.436;6.972;2022-09-17T06:25:29;11.30;99.90
2012;DHT22;1009;51.436;6.972;2022-09-17T06:27:56;11.30;99.90
2012;DHT22;1009;51.436;6.972;2022-09-17T06:30:24;11.20;99.90
2012;DHT22;1009;51.436;6.972;2022-09-17T06:32:51;11.20;99.90
2012;DHT22;1009;51.436;6.972;2022-09-17T06:35:17;11.20;99.90
2012;DHT22;1009;51.436;6.972;2022-09-17T06:37:44;11.20;99.90
2012;DHT22;1009;51.436;6.972;2022-09-17T06:40:11;11.30;99.90
2012;DHT22;1009;51.436;6.972;2022-09-17T06:42:38;11.20;99.90
2012;DHT22;1009;51.436;6.972;2022-09-17T06:45:06;11.20;99.90
2012;DHT22;1009;51.436;6.972;2022-09-17T06:47:34;11.20;99.90
2012;DHT22;1009;51.436;6.972;2022-09-17T06:50:01;11.20;99.90
2012;DHT22;1009;51.436;6.972;2022-09-17T06:52:28;11.30;99.90
2012;DHT22;1009;51.436;6.972;2022-09-17T06:54:54;11.30;99.90
2012;DHT22;1009;51.436;6.972;2022-09-17T06:57:22;11.30;99.90
2012;DHT22;1009;51.436;6.972;2022-09-17T06:59:48;11.40;99.90
2012;DHT22;1009;51.436;6.972;2022-09-17T07:02:16;11.40;99.90
2012;DHT22;1009;51.436;6.972;2022-09-17T07:04:44;11.40;99.90
2012;DHT22;1009;51.436;6.972;2022-09-17T07:07:11;11.50;99.90
2012;DHT22;1009;51.436;6.972;2022-09-17T07:09:38;11.60;99.90
2012;DHT22;1009;51.436;6.972;2022-09-17T07:12:07;11.60;99.90
2012;DHT22;1009;51.436;6.972;2022-09-17T07:14:34;11.60;99.90
2012;DHT22;1009;51.436;6.972;2022-09-17T07:17:01;11.80;99.90
2012;DHT22;1009;51.436;6.972;2022-09-17T07:19:28;11.90;99.90
2012;DHT22;1009;51.436;6.972;2022-09-17T07:21:56;12.10;99.90
2012;DHT22;1009;51.436;6.972;2022-09-17T07:24:23;12.20;99.90
2012;DHT22;1009;51.436;6.972;2022-09-17T07:26:50;12.30;99.90
2012;DHT22;1009;51.436;6.972;2022-09-17T07:29:17;12.30;99.90
2012;DHT22;1009;51.436;6.972;2022-09-17T07:31:45;12.40;99.90
2012;DHT22;1009;51.436;6.972;2022-09-17T07:34:11;12.40;99.90
2012;DHT22;1009;51.436;6.972;2022-09-17T07:36:38;12.50;99.90
2012;DHT22;1009;51.436;6.972;2022-09-17T07:39:06;12.40;99.90
2012;DHT22;1009;51.436;6.972;2022-09-17T07:41:34;12.40;99.90
2012;DHT22;1009;51.436;6.972;2022-09-17T07:44:01;12.20;99.90
2012;DHT22;1009;51.436;6.972;2022-09-17T07:46:28;12.10;99.90
2012;DHT22;1009;51.436;6.972;2022-09-17T07:48:55;12.20;99.90
2012;DHT22;1009;51.436;6.972;2022-09-17T07:51:23;12.30;99.90
2012;DHT22;1009;51.436;6.972;2022-09-17T07:53:52;12.40;99.90
2012;DHT22;1009;51.436;6.972;2022-09-17T07:56:21;12.60;99.90
2012;DHT22;1009;51.436;6.972;2022-09-17T07:58:48;12.70;99.90
2012;DHT22;1009;51.436;6.972;2022-09-17T08:01:15;12.80;99.90
2012;DHT22;1009;51.436;6.972;2022-09-17T08:03:46;12.90;99.90
2012;DHT22;1009;51.436;6.972;2022-09-17T08:06:16;13.00;99.90
2012;DHT22;1009;51.436;6.972;2022-09-17T08:08:44;13.10;99.90
2012;DHT22;1009;51.436;6.972;2022-09-17T08:11:13;13.10;99.90
2012;DHT22;1009;51.436;6.972;2022-09-17T08:13:42;13.20;99.90
2012;DHT22;1009;51.436;6.972;2022-09-17T08:16:10;13.30;99.90
2012;DHT22;1009;51.436;6.972;2022-09-17T08:18:39;13.20;99.90
2012;DHT22;1009;51.436;6.972;2022-09-17T08:21:08;13.30;99.90
2012;DHT22;1009;51.436;6.972;2022-09-17T08:23:36;13.50;99.90
2012;DHT22;1009;51.436;6.972;2022-09-17T08:26:04;13.60;99.90
2012;DHT22;1009;51.436;6.972;2022-09-17T08:28:33;13.70;99.90
2012;DHT22;1009;51.436;6.972;2022-09-17T08:31:04;13.80;99.90
2012;DHT22;1009;51.436;6.972;2022-09-17T08:33:31;13.90;99.90
2012;DHT22;1009;51.436;6.972;2022-09-17T08:35:58;13.90;99.90
2012;DHT22;1009;51.436;6.972;2022-09-17T08:38:29;13.80;99.90
2012;DHT22;1009;51.436;6.972;2022-09-17T08:41:04;13.90;99.90
2012;DHT22;1009;51.436;6.972;2022-09-17T08:43:33;13.90;99.90
2012;DHT22;1009;51.436;6.972;2022-09-17T08:46:03;13.80;99.90
2012;DHT22;1009;51.436;6.972;2022-09-17T08:48:36;13.60;99.90
2012;DHT22;1009;51.436;6.972;2022-09-17T08:51:13;13.70;99.90
2012;DHT22;1009;51.436;6.972;2022-09-17T08:53:50;13.80;99.90
2012;DHT22;1009;51.436;6.972;2022-09-17T08:56:24;13.70;99.90
2012;DHT22;1009;51.436;6.972;2022-09-17T08:59:17;13.80;99.90
2012;DHT22;1009;51.436;6.972;2022-09-17T09:01:55;13.70;99.90
2012;DHT22;1009;51.436;6.972;2022-09-17T09:04:35;13.80;99.90
2012;DHT22;1009;51.436;6.972;2022-09-17T09:07:10;13.80;99.90
2012;DHT22;1009;51.436;6.972;2022-09-17T09:09:43;14.00;99.90
2012;DHT22;1009;51.436;6.972;2022-09-17T09:12:17;14.10;99.90
2012;DHT22;1009;51.436;6.972;2022-09-17T09:14:50;14.20;99.90
2012;DHT22;1009;51.436;6.972;2022-09-17T09:17:21;14.30;99.90
2012;DHT22;1009;51.436;6.972;2022-09-17T09:19:50;14.30;99.90
2012;DHT22;1009;51.436;6.972;2022-09-17T09:22:44;14.40;99.90
2012;DHT22;1009;51.436;6.972;2022-09-17T09:25:19;14.40;99.90
2012;DHT22;1009;51.436;6.972;2022-09-17T09:27:55;14.40;99.90
2012;DHT22;1009;51.436;6.972;2022-09-17T09:30:30;14.30;99.90
2012;DHT22;1009;51.436;6.972;2022-09-17T09:33:06;14.30;99.90
2012;DHT22;1009;51.436;6.972;2022-09-17T09:35:40;14.20;99.90
2012;DHT22;1009;51.436;6.972;2022-09-17T09:38:14;14.10;99.90
2012;DHT22;1009;51.436;6.972;2022-09-17T09:40:45;14.00;99.90
2012;DHT22;1009;51.436;6.972;2022-09-17T09:43:19;14.00;99.90
2012;DHT22;1009;51.436;6.972;2022-09-17T09:45:57;14.00;99.90
2012;DHT22;1009;51.436;6.972;2022-09-17T09:48:33;14.00;99.90
2012;DHT22;1009;51.436;6.972;2022-09-17T09:51:12;14.20;99.90
2012;DHT22;1009;51.436;6.972;2022-09-17T09:53:52;14.40;99.90
2012;DHT22;1009;51.436;6.972;2022-09-17T09:56:46;14.70;99.90
2012;DHT22;1009;51.436;6.972;2022-09-17T09:59:14;15.10;99.90
2012;DHT22;1009;51.436;6.972;2022-09-17T10:01:42;14.90;99.90
2012;DHT22;1009;51.436;6.972;2022-09-17T10:04:18;14.40;99.90
2012;DHT22;1009;51.436;6.972;2022-09-17T10:06:46;13.80;99.90
2012;DHT22;1009;51.436;6.972;2022-09-17T10:09:14;13.20;99.90
2012;DHT22;1009;51.436;6.972;2022-09-17T10:11:58;12.80;99.90
2012;DHT22;1009;51.436;6.972;2022-09-17T10:14:27;12.60;99.90
2012;DHT22;1009;51.436;6.972;2022-09-17T10:17:19;12.80;99.90
2012;DHT22;1009;51.436;6.972;2022-09-17T10:20:07;13.10;99.90
2012;DHT22;1009;51.436;6.972;2022-09-17T10:22:37;13.40;99.90
2012;DHT22;1009;51.436;6.972;2022-09-17T10:25:17;13.80;99.90
2012;DHT22;1009;51.436;6.972;2022-09-17T10:27:47;14.00;99.90
2012;DHT22;1009;51.436;6.972;2022-09-17T10:30:15;14.30;99.90
2012;DHT22;1009;51.436;6.972;2022-09-17T10:32:44;14.50;99.90
2012;DHT22;1009;51.436;6.972;2022-09-17T10:35:32;14.70;99.90
2012;DHT22;1009;51.436;6.972;2022-09-17T10:37:59;14.50;99.90
2012;DHT22;1009;51.436;6.972;2022-09-17T10:40:29;14.10;99.90
2012;DHT22;1009;51.436;6.972;2022-09-17T10:43:20;13.90;99.90
2012;DHT22;1009;51.436;6.972;2022-09-17T10:45:56;13.70;99.90
2012;DHT22;1009;51.436;6.972;2022-09-17T10:48:26;13.80;99.90
2012;DHT22;1009;51.436;6.972;2022-09-17T10:50:56;13.80;99.90
2012;DHT22;1009;51.436;6.972;2022-09-17T10:53:24;13.90;99.90
2012;DHT22;1009;51.436;6.972;2022-09-17T10:55:57;14.20;99.90
2012;DHT22;1009;51.436;6.972;2022-09-17T10:58:41;14.20;99.90
2012;DHT22;1009;51.436;6.972;2022-09-17T11:01:19;14.10;99.90
2012;DHT22;1009;51.436;6.972;2022-09-17T11:04:16;14.00;99.90
2012;DHT22;1009;51.436;6.972;2022-09-17T11:09:44;13.80;99.90
2012;DHT22;1009;51.436;6.972;2022-09-17T11:12:32;13.30;99.90
2012;DHT22;1009;51.436;6.972;2022-09-17T11:15:12;12.80;99.90
2012;DHT22;1009;51.436;6.972;2022-09-17T11:17:58;12.30;99.90
2012;DHT22;1009;51.436;6.972;2022-09-17T11:20:45;12.00;99.90
2012;DHT22;1009;51.436;6.972;2022-09-17T11:23:26;11.70;99.90
2012;DHT22;1009;51.436;6.972;2022-09-17T11:25:59;11.50;99.90
2012;DHT22;1009;51.436;6.972;2022-09-17T11:28:38;11.30;99.90
2012;DHT22;1009;51.436;6.972;2022-09-17T11:31:18;11.30;99.90
2012;DHT22;1009;51.436;6.972;2022-09-17T11:37:08;11.20;99.90
2012;DHT22;1009;51.436;6.972;2022-09-17T11:39:42;11.20;99.90
2012;DHT22;1009;51.436;6.972;2022-09-17T11:42:15;11.00;99.90
2012;DHT22;1009;51.436;6.972;2022-09-17T11:44:48;10.90;99.90
2012;DHT22;1009;51.436;6.972;2022-09-17T11:47:19;10.80;99.90
2012;DHT22;1009;51.436;6.972;2022-09-17T11:49:49;10.80;99.90
2012;DHT22;1009;51.436;6.972;2022-09-17T11:52:21;11.00;99.90
2012;DHT22;1009;51.436;6.972;2022-09-17T11:54:54;11.20;99.90
2012;DHT22;1009;51.436;6.972;2022-09-17T11:57:26;11.40;99.90
2012;DHT22;1009;51.436;6.972;2022-09-17T11:59:58;11.40;99.90
2012;DHT22;1009;51.436;6.972;2022-09-17T12:02:37;11.60;99.90
2012;DHT22;1009;51.436;6.972;2022-09-17T12:05:13;12.10;99.90
2012;DHT22;1009;51.436;6.972;2022-09-17T12:07:47;12.50;99.90
2012;DHT22;1009;51.436;6.972;2022-09-17T12:10:34;12.90;99.90
2012;DHT22;1009;51.436;6.972;2022-09-17T12:13:18;13.10;99.90
2012;DHT22;1009;51.436;6.972;2022-09-17T12:15:49;13.40;99.90
2012;DHT22;1009;51.436;6.972;2022-09-17T12:18:26;13.50;99.90
2012;DHT22;1009;51.436;6.972;2022-09-17T12:20:57;13.30;99.90
2012;DHT22;1009;51.436;6.972;2022-09-17T12:23:33;13.00;99.90
2012;DHT22;1009;51.436;6.972;2022-09-17T12:26:13;12.70;99.90
2012;DHT22;1009;51.436;6.972;2022-09-17T12:28:50;12.40;99.90
2012;DHT22;1009;51.436;6.972;2022-09-17T12:31:25;12.30;99.90
2012;DHT22;1009;51.436;6.972;2022-09-17T12:34:01;12.20;99.90
2012;DHT22;1009;51.436;6.972;2022-09-17T12:36:39;12.00;99.90
2012;DHT22;1009;51.436;6.972;2022-09-17T12:42:23;12.30;99.90
2012;DHT22;1009;51.436;6.972;2022-09-17T12:45:11;12.80;99.90
2012;DHT22;1009;51.436;6.972;2022-09-17T12:48:18;13.20;99.90
2012;DHT22;1009;51.436;6.972;2022-09-17T12:50:57;13.70;99.90
2012;DHT22;1009;51.436;6.972;2022-09-17T12:53:29;13.90;99.90
2012;DHT22;1009;51.436;6.972;2022-09-17T12:56:11;14.30;99.90
2012;DHT22;1009;51.436;6.972;2022-09-17T12:58:52;14.60;99.90
2012;DHT22;1009;51.436;6.972;2022-09-17T13:01:26;14.80;99.90
2012;DHT22;1009;51.436;6.972;2022-09-17T13:03:59;14.90;99.90
2012;DHT22;1009;51.436;6.972;2022-09-17T13:12:25;15.10;99.90
2012;DHT22;1009;51.436;6.972;2022-09-17T13:18:01;15.30;99.90
2012;DHT22;1009;51.436;6.972;2022-09-17T13:20:33;15.50;99.90
2012;DHT22;1009;51.436;6.972;2022-09-17T13:23:03;15.60;99.90
2012;DHT22;1009;51.436;6.972;2022-09-17T13:25:30;15.70;99.90
2012;DHT22;1009;51.436;6.972;2022-09-17T13:28:06;15.50;99.90
2012;DHT22;1009;51.436;6.972;2022-09-17T13:30:56;15.70;99.90
2012;DHT22;1009;51.436;6.972;2022-09-17T13:33:51;15.60;99.90
2012;DHT22;1009;51.436;6.972;2022-09-17T13:36:38;15.60;99.90
2012;DHT22;1009;51.436;6.972;2022-09-17T13:39:07;15.30;99.90
2012;DHT22;1009;51.436;6.972;2022-09-17T13:41:36;15.00;99.90
2012;DHT22;1009;51.436;6.972;2022-09-17T13:44:04;14.60;99.90
2012;DHT22;1009;51.436;6.972;2022-09-17T13:46:33;14.40;99.90
2012;DHT22;1009;51.436;6.972;2022-09-17T13:49:03;14.10;99.90
2012;DHT22;1009;51.436;6.972;2022-09-17T13:51:49;13.30;99.90
2012;DHT22;1009;51.436;6.972;2022-09-17T13:54:18;12.40;99.90
2012;DHT22;1009;51.436;6.972;2022-09-17T13:59:31;11.50;99.90
2012;DHT22;1009;51.436;6.972;2022-09-17T14:02:27;11.40;99.90
2012;DHT22;1009;51.436;6.972;2022-09-17T14:04:55;11.40;99.90
2012;DHT22;1009;51.436;6.972;2022-09-17T14:07:33;11.40;99.90
2012;DHT22;1009;51.436;6.972;2022-09-17T14:10:01;11.40;99.90
2012;DHT22;1009;51.436;6.972;2022-09-17T14:12:53;11.60;99.90
2012;DHT22;1009;51.436;6.972;2022-09-17T14:15:35;11.90;99.90
2012;DHT22;1009;51.436;6.972;2022-09-17T14:18:41;12.40;99.90
2012;DHT22;1009;51.436;6.972;2022-09-17T14:21:28;12.70;99.90
2012;DHT22;1009;51.436;6.972;2022-09-17T14:24:00;12.70;99.90
2012;DHT22;1009;51.436;6.972;2022-09-17T14:26:52;12.70;99.90
2012;DHT22;1009;51.436;6.972;2022-09-17T14:29:47;12.60;99.90
2012;DHT22;1009;51.436;6.972;2022-09-17T14:32:17;12.60;99.90
2012;DHT22;1009;51.436;6.972;2022-09-17T14:34:48;12.60;99.90
2012;DHT22;1009;51.436;6.972;2022-09-17T14:37:18;12.70;99.90
2012;DHT22;1009;51.436;6.972;2022-09-17T14:39:47;12.70;99.90
2012;DHT22;1009;51.436;6.972;2022-09-17T14:42:16;12.60;99.90
2012;DHT22;1009;51.436;6.972;2022-09-17T14:44:50;12.60;99.90
2012;DHT22;1009;51.436;6.972;2022-09-17T14:47:20;12.50;99.90
2012;DHT22;1009;51.436;6.972;2022-09-17T14:49:49;12.50;99.90
2012;DHT22;1009;51.436;6.972;2022-09-17T14:52:23;12.60;99.90
2012;DHT22;1009;51.436;6.972;2022-09-17T14:55:08;12.70;99.90
2012;DHT22;1009;51.436;6.972;2022-09-17T14:57:35;12.80;99.90
2012;DHT22;1009;51.436;6.972;2022-09-17T15:00:03;12.80;99.90
2012;DHT22;1009;51.436;6.972;2022-09-17T15:02:33;12.90;99.90
2012;DHT22;1009;51.436;6.972;2022-09-17T15:05:15;13.00;99.90
2012;DHT22;1009;51.436;6.972;2022-09-17T15:07:42;13.00;99.90
2012;DHT22;1009;51.436;6.972;2022-09-17T15:10:13;13.00;99.90
2012;DHT22;1009;51.436;6.972;2022-09-17T15:12:41;13.00;99.90
2012;DHT22;1009;51.436;6.972;2022-09-17T15:15:16;12.90;99.90
2012;DHT22;1009;51.436;6.972;2022-09-17T15:17:43;12.80;99.90
2012;DHT22;1009;51.436;6.972;2022-09-17T15:20:15;12.60;99.90
2012;DHT22;1009;51.436;6.972;2022-09-17T15:22:45;12.60;99.90
2012;DHT22;1009;51.436;6.972;2022-09-17T15:25:15;12.60;99.90
2012;DHT22;1009;51.436;6.972;2022-09-17T15:27:48;12.70;99.90
2012;DHT22;1009;51.436;6.972;2022-09-17T15:30:19;12.70;99.90
2012;DHT22;1009;51.436;6.972;2022-09-17T15:32:49;12.60;99.90
2012;DHT22;1009;51.436;6.972;2022-09-17T15:35:23;12.60;99.90
2012;DHT22;1009;51.436;6.972;2022-09-17T15:37:53;12.60;99.90
2012;DHT22;1009;51.436;6.972;2022-09-17T15:40:27;12.70;99.90
2012;DHT22;1009;51.436;6.972;2022-09-17T15:43:02;12.80;99.90
2012;DHT22;1009;51.436;6.972;2022-09-17T15:45:31;12.80;99.90
2012;DHT22;1009;51.436;6.972;2022-09-17T15:48:02;12.70;99.90
2012;DHT22;1009;51.436;6.972;2022-09-17T15:50:31;12.50;99.90
2012;DHT22;1009;51.436;6.972;2022-09-17T15:53:12;12.20;99.90
2012;DHT22;1009;51.436;6.972;2022-09-17T15:55:40;11.90;99.90
2012;DHT22;1009;51.436;6.972;2022-09-17T15:58:23;11.80;99.90
2012;DHT22;1009;51.436;6.972;2022-09-17T16:01:51;11.80;99.90
2012;DHT22;1009;51.436;6.972;2022-09-17T16:04:27;11.60;99.90
2012;DHT22;1009;51.436;6.972;2022-09-17T16:09:45;11.30;99.90
2012;DHT22;1009;51.436;6.972;2022-09-17T16:12:15;11.30;99.90
2012;DHT22;1009;51.436;6.972;2022-09-17T16:14:47;11.20;99.90
2012;DHT22;1009;51.436;6.972;2022-09-17T16:17:24;11.10;99.90
2012;DHT22;1009;51.436;6.972;2022-09-17T16:19:52;10.90;99.90
2012;DHT22;1009;51.436;6.972;2022-09-17T16:22:20;10.80;99.90
2012;DHT22;1009;51.436;6.972;2022-09-17T16:24:47;10.80;99.90
2012;DHT22;1009;51.436;6.972;2022-09-17T16:27:19;10.80;99.90
2012;DHT22;1009;51.436;6.972;2022-09-17T16:29:48;10.80;99.90
2012;DHT22;1009;51.436;6.972;2022-09-17T16:32:15;10.80;99.90
2012;DHT22;1009;51.436;6.972;2022-09-17T16:34:44;10.80;99.90
2012;DHT22;1009;51.436;6.972;2022-09-17T16:37:10;10.80;99.90
2012;DHT22;1009;51.436;6.972;2022-09-17T16:39:37;10.90;99.90
2012;DHT22;1009;51.436;6.972;2022-09-17T16:42:04;11.00;99.90
2012;DHT22;1009;51.436;6.972;2022-09-17T16:44:31;11.00;99.90
2012;DHT22;1009;51.436;6.972;2022-09-17T16:46:58;11.00;99.90
2012;DHT22;1009;51.436;6.972;2022-09-17T16:49:25;11.00;99.90
2012;DHT22;1009;51.436;6.972;2022-09-17T16:51:53;11.00;99.90
2012;DHT22;1009;51.436;6.972;2022-09-17T16:54:20;11.00;99.90
2012;DHT22;1009;51.436;6.972;2022-09-17T16:56:47;11.00;99.90
2012;DHT22;1009;51.436;6.972;2022-09-17T16:59:14;11.00;99.90
2012;DHT22;1009;51.436;6.972;2022-09-17T17:01:41;11.00;99.90